Time;durP1;ratioP1;P1;durP2;ratioP2;P2;SDS_P1;SDS_P2;PMS_P1;PMS_P2;Temp;Humidity;BMP_temperature;BMP_pressure;BME280_temperature;BME280_humidity;BME280_pressure;Samples;Min_cycle;Max_cycle;Signal;HPM_P1;HPM_P2
2022/09/14 00:01:43;;;;;;;50.03;25.25;;;;;;;;;;8408425;28;20044;-82
2022/09/14 00:05:45;;;;;;;53.40;21.58;;;;;;;;;;8412518;28;20119;-86
2022/09/14 00:09:51;;;;;;;47.45;21.25;;;;;;;;;;8395089;28;20044;-85
2022/09/14 00:13:55;;;;;;;56.97;23.92;;;;;;;;;;8394549;28;20060;-87
2022/09/14 00:17:57;;;;;;;62.35;24.23;;;;;;;;;;8394363;28;20044;-83
2022/09/14 00:22:00;;;;;;;65.75;23.40;;;;;;;;;;8394502;28;20064;-81
2022/09/14 00:26:06;;;;;;;64.68;24.00;;;;;;;;;;8399978;28;20040;-84
2022/09/14 00:30:09;;;;;;;51.63;23.05;;;;;;;;;;8396224;28;20044;-82
2022/09/14 00:34:15;;;;;;;62.50;25.10;;;;;;;;;;8400055;28;20052;-82
2022/09/14 00:38:17;;;;;;;61.25;23.48;;;;;;;;;;8400253;28;20403;-88
2022/09/14 00:42:21;;;;;;;58.38;24.45;;;;;;;;;;8404763;28;20058;-82
2022/09/14 00:46:25;;;;;;;53.80;21.67;;;;;;;;;;8399880;28;20431;-87
2022/09/14 00:50:27;;;;;;;58.40;22.10;;;;;;;;;;8399727;28;20068;-82
2022/09/14 00:54:30;;;;;;;51.28;21.50;;;;;;;;;;8411301;28;20048;-88
2022/09/14 00:58:34;;;;;;;45.78;19.75;;;;;;;;;;8399408;28;20063;-87
2022/09/14 01:02:37;;;;;;;36.60;18.95;;;;;;;;;;8402954;28;20043;-86
2022/09/14 01:06:48;;;;;;;33.03;16.88;;;;;;;;;;8409798;28;20125;-87
2022/09/14 01:11:07;;;;;;;38.85;18.95;;;;;;;;;;8399082;28;20071;-83
2022/09/14 01:15:17;;;;;;;41.50;19.48;;;;;;;;;;8398933;28;20052;-82
2022/09/14 01:19:30;;;;;;;33.28;16.85;;;;;;;;;;8413086;28;20044;-82
2022/09/14 01:23:40;;;;;;;31.17;16.48;;;;;;;;;;8398703;28;20052;-83
2022/09/14 01:27:45;;;;;;;25.60;14.88;;;;;;;;;;8398523;28;20045;-84
2022/09/14 01:31:52;;;;;;;29.15;15.68;;;;;;;;;;8398463;28;20044;-83
2022/09/14 01:35:57;;;;;;;31.75;16.25;;;;;;;;;;8398428;28;20040;-84
2022/09/14 01:40:05;;;;;;;29.02;16.23;;;;;;;;;;8398256;28;20051;-82
2022/09/14 01:44:13;;;;;;;28.20;15.95;;;;;;;;;;8397937;28;20044;-87
2022/09/14 01:48:20;;;;;;;27.33;15.73;;;;;;;;;;8397757;28;20072;-84
2022/09/14 01:52:28;;;;;;;27.48;15.88;;;;;;;;;;8412224;28;20048;-83
2022/09/14 01:56:35;;;;;;;28.83;15.85;;;;;;;;;;8401246;28;20223;-87
2022/09/14 02:00:44;;;;;;;31.98;17.13;;;;;;;;;;8397800;28;20045;-86
2022/09/14 02:04:53;;;;;;;35.97;17.13;;;;;;;;;;8419477;28;20043;-87
2022/09/14 02:08:55;;;;;;;34.03;16.80;;;;;;;;;;8402651;28;20053;-87
2022/09/14 02:12:58;;;;;;;34.40;17.52;;;;;;;;;;8396982;28;20098;-82
2022/09/14 02:17:02;;;;;;;38.50;19.15;;;;;;;;;;8397425;28;20610;-82
2022/09/14 02:21:10;;;;;;;47.05;20.13;;;;;;;;;;8396680;28;20106;-84
2022/09/14 02:25:13;;;;;;;36.40;18.58;;;;;;;;;;8396939;28;20097;-82
2022/09/14 02:29:15;;;;;;;37.50;18.25;;;;;;;;;;8397346;28;20052;-87
2022/09/14 02:33:27;;;;;;;46.75;19.48;;;;;;;;;;8396472;28;20052;-82
2022/09/14 02:37:39;;;;;;;53.10;20.95;;;;;;;;;;8409483;28;20040;-88
2022/09/14 02:41:50;;;;;;;62.58;21.27;;;;;;;;;;8412114;28;20040;-86
2022/09/14 02:46:00;;;;;;;57.05;22.42;;;;;;;;;;8406729;28;20117;-88
2022/09/14 02:50:16;;;;;;;58.55;21.60;;;;;;;;;;8399121;28;20052;-85
2022/09/14 02:54:22;;;;;;;57.53;22.58;;;;;;;;;;8396047;28;20052;-88
2022/09/14 02:58:25;;;;;;;66.10;24.48;;;;;;;;;;8396377;28;20051;-87
2022/09/14 03:02:27;;;;;;;59.25;23.60;;;;;;;;;;8398270;28;20472;-84
2022/09/14 03:06:31;;;;;;;59.17;23.58;;;;;;;;;;8407669;28;20049;-82
2022/09/14 03:10:34;;;;;;;60.92;22.52;;;;;;;;;;8396101;28;20485;-82
2022/09/14 03:14:36;;;;;;;47.08;21.05;;;;;;;;;;8397730;28;20052;-84
2022/09/14 03:18:40;;;;;;;50.08;21.15;;;;;;;;;;8400167;28;20093;-83
2022/09/14 03:22:44;;;;;;;44.08;20.55;;;;;;;;;;8400407;28;20095;-85
2022/09/14 03:26:50;;;;;;;44.65;20.13;;;;;;;;;;8397453;28;20043;-87
2022/09/14 03:30:53;;;;;;;42.90;19.30;;;;;;;;;;8396073;28;20105;-82
2022/09/14 03:34:56;;;;;;;32.88;15.90;;;;;;;;;;8395474;28;20051;-82
2022/09/14 03:39:01;;;;;;;32.28;17.80;;;;;;;;;;8395418;28;20056;-82
2022/09/14 03:43:04;;;;;;;30.70;16.75;;;;;;;;;;8395236;28;20067;-82
2022/09/14 03:47:07;;;;;;;30.13;15.27;;;;;;;;;;8401806;28;20399;-83
2022/09/14 03:51:12;;;;;;;30.83;16.48;;;;;;;;;;8404750;28;20048;-82
2022/09/14 03:55:18;;;;;;;34.63;15.70;;;;;;;;;;8413290;28;20045;-83
2022/09/14 03:59:21;;;;;;;34.28;16.80;;;;;;;;;;8407477;28;20049;-82
2022/09/14 04:03:23;;;;;;;32.47;16.75;;;;;;;;;;8412348;28;20044;-87
2022/09/14 04:07:26;;;;;;;38.08;18.08;;;;;;;;;;8402442;28;20049;-82
2022/09/14 04:11:32;;;;;;;40.85;17.95;;;;;;;;;;8415499;28;20056;-85
2022/09/14 04:15:35;;;;;;;55.30;25.40;;;;;;;;;;8415220;28;20416;-85
2022/09/14 04:19:39;;;;;;;48.22;27.38;;;;;;;;;;8415339;28;20392;-84
2022/09/14 04:23:42;;;;;;;39.08;20.52;;;;;;;;;;8410242;28;20048;-82
2022/09/14 04:27:46;;;;;;;48.00;24.77;;;;;;;;;;8429170;28;20554;-82
2022/09/14 04:31:48;;;;;;;41.45;20.48;;;;;;;;;;8423814;28;20040;-85
2022/09/14 04:36:00;;;;;;;39.80;18.63;;;;;;;;;;8426591;28;20051;-82
2022/09/14 04:40:03;;;;;;;41.75;19.33;;;;;;;;;;8417927;28;20446;-88
2022/09/14 04:44:07;;;;;;;51.17;27.80;;;;;;;;;;8406722;28;20053;-82
2022/09/14 04:48:09;;;;;;;50.70;25.58;;;;;;;;;;8407649;28;20053;-82
2022/09/14 04:52:12;;;;;;;41.33;23.15;;;;;;;;;;8417845;28;20134;-86
2022/09/14 04:56:15;;;;;;;38.17;20.55;;;;;;;;;;8421545;28;20376;-85
2022/09/14 05:00:19;;;;;;;29.52;16.88;;;;;;;;;;8427309;28;20066;-89
2022/09/14 05:04:22;;;;;;;33.17;18.73;;;;;;;;;;8414677;28;20037;-83
2022/09/14 05:08:24;;;;;;;27.00;15.13;;;;;;;;;;8421557;28;20495;-87
2022/09/14 05:12:27;;;;;;;22.30;13.55;;;;;;;;;;8409702;28;20131;-89
2022/09/14 05:16:39;;;;;;;18.25;13.38;;;;;;;;;;8418666;28;20415;-89
2022/09/14 05:20:51;;;;;;;18.83;14.02;;;;;;;;;;8405450;28;20101;-84
2022/09/14 05:24:57;;;;;;;17.58;11.70;;;;;;;;;;8405037;28;20459;-89
2022/09/14 05:29:04;;;;;;;17.08;11.23;;;;;;;;;;8428640;28;20055;-85
2022/09/14 05:33:08;;;;;;;18.13;11.23;;;;;;;;;;8427194;28;20048;-84
2022/09/14 05:37:13;;;;;;;17.00;11.10;;;;;;;;;;8398440;28;20083;-85
2022/09/14 05:41:16;;;;;;;16.83;10.35;;;;;;;;;;8398438;28;20397;-82
2022/09/14 05:45:19;;;;;;;17.15;10.25;;;;;;;;;;8398563;28;20122;-87
2022/09/14 05:49:24;;;;;;;14.45;10.98;;;;;;;;;;8397995;28;20047;-82
2022/09/14 05:53:26;;;;;;;14.45;10.45;;;;;;;;;;8397623;28;20044;-89
2022/09/14 05:57:29;;;;;;;16.40;9.85;;;;;;;;;;8397624;28;20048;-83
2022/09/14 06:01:32;;;;;;;15.13;9.02;;;;;;;;;;8397617;28;20036;-88
2022/09/14 06:05:36;;;;;;;14.68;9.02;;;;;;;;;;8422070;28;20535;-82
2022/09/14 06:09:38;;;;;;;15.75;9.32;;;;;;;;;;8409390;28;20043;-87
2022/09/14 06:13:41;;;;;;;15.05;9.32;;;;;;;;;;8411066;28;20055;-86
2022/09/14 06:17:44;;;;;;;11.45;8.63;;;;;;;;;;8396949;28;20052;-82
2022/09/14 06:21:48;;;;;;;14.80;9.48;;;;;;;;;;8399079;28;20408;-83
2022/09/14 06:25:53;;;;;;;12.55;8.70;;;;;;;;;;8396687;28;20047;-83
2022/09/14 06:29:55;;;;;;;12.25;8.32;;;;;;;;;;8396182;28;20146;-82
2022/09/14 06:33:58;;;;;;;15.95;9.27;;;;;;;;;;8408208;28;20431;-84
2022/09/14 06:38:02;;;;;;;14.38;9.45;;;;;;;;;;8432804;28;20115;-84
2022/09/14 06:42:05;;;;;;;14.95;9.10;;;;;;;;;;8394021;28;20040;-82
2022/09/14 06:46:11;;;;;;;13.35;8.13;;;;;;;;;;8396226;28;20419;-82
2022/09/14 06:50:13;;;;;;;9.52;7.28;;;;;;;;;;8396136;28;20385;-83
2022/09/14 06:54:18;;;;;;;9.45;6.20;;;;;;;;;;8395779;28;20045;-84
2022/09/14 06:58:21;;;;;;;11.32;7.15;;;;;;;;;;8395931;28;20048;-83
2022/09/14 07:02:23;;;;;;;10.27;6.90;;;;;;;;;;8397296;28;20067;-89
2022/09/14 07:06:28;;;;;;;11.18;7.88;;;;;;;;;;8408131;28;20129;-86
2022/09/14 07:10:32;;;;;;;10.63;6.82;;;;;;;;;;8395847;28;20056;-83
2022/09/14 07:14:35;;;;;;;10.57;7.22;;;;;;;;;;8395531;28;20037;-85
2022/09/14 07:18:38;;;;;;;8.82;7.00;;;;;;;;;;8395733;28;20049;-83
2022/09/14 07:22:41;;;;;;;9.45;6.28;;;;;;;;;;8395502;28;20059;-83
2022/09/14 07:26:44;;;;;;;10.25;6.68;;;;;;;;;;8395411;28;20543;-86
2022/09/14 07:30:48;;;;;;;10.27;6.65;;;;;;;;;;8395553;28;20049;-83
2022/09/14 07:34:50;;;;;;;9.77;6.97;;;;;;;;;;8395070;28;20056;-83
2022/09/14 07:38:54;;;;;;;8.73;6.18;;;;;;;;;;8395345;28;20049;-87
2022/09/14 07:42:58;;;;;;;8.90;5.93;;;;;;;;;;8402136;28;20055;-84
2022/09/14 07:47:00;;;;;;;10.30;6.00;;;;;;;;;;8401757;28;20045;-83
2022/09/14 07:51:05;;;;;;;8.90;5.50;;;;;;;;;;8402086;28;20488;-83
2022/09/14 07:55:11;;;;;;;9.40;5.50;;;;;;;;;;8401889;28;20407;-83
2022/09/14 07:59:15;;;;;;;8.57;4.75;;;;;;;;;;8401541;28;20049;-86
2022/09/14 08:03:18;;;;;;;7.50;5.20;;;;;;;;;;8415034;28;20040;-83
2022/09/14 08:07:20;;;;;;;8.80;5.43;;;;;;;;;;8405510;28;20064;-82
2022/09/14 08:11:24;;;;;;;8.50;4.75;;;;;;;;;;8401272;28;20044;-87
2022/09/14 08:15:30;;;;;;;7.63;4.70;;;;;;;;;;8400889;28;20078;-84
2022/09/14 08:19:33;;;;;;;8.30;4.75;;;;;;;;;;8400573;28;20040;-83
2022/09/14 08:23:36;;;;;;;6.55;4.05;;;;;;;;;;8400516;28;20499;-84
2022/09/14 08:27:39;;;;;;;8.88;3.42;;;;;;;;;;8400924;28;20067;-83
2022/09/14 08:31:44;;;;;;;7.47;3.72;;;;;;;;;;8400183;28;20052;-89
2022/09/14 08:35:46;;;;;;;5.80;3.60;;;;;;;;;;8400870;28;20041;-87
2022/09/14 08:39:50;;;;;;;5.78;3.08;;;;;;;;;;8399998;28;20114;-85
2022/09/14 08:43:53;;;;;;;6.78;2.90;;;;;;;;;;8400387;28;20044;-82
2022/09/14 08:47:58;;;;;;;4.93;2.40;;;;;;;;;;8400480;28;20045;-82
2022/09/14 08:52:05;;;;;;;9.07;2.83;;;;;;;;;;8403136;28;20098;-84
2022/09/14 08:56:20;;;;;;;6.00;2.58;;;;;;;;;;8425010;28;20040;-89
2022/09/14 09:00:27;;;;;;;4.85;2.45;;;;;;;;;;8421265;28;20085;-87
2022/09/14 09:04:41;;;;;;;4.95;2.38;;;;;;;;;;8428753;28;20090;-85
2022/09/14 09:08:57;;;;;;;5.28;2.40;;;;;;;;;;8405786;28;20090;-89
2022/09/14 09:13:01;;;;;;;5.88;2.10;;;;;;;;;;8416464;28;20056;-89
2022/09/14 09:17:10;;;;;;;4.97;2.05;;;;;;;;;;8411321;28;20044;-85
2022/09/14 09:21:18;;;;;;;6.38;2.22;;;;;;;;;;8418315;28;20067;-82
2022/09/14 09:25:24;;;;;;;5.30;2.40;;;;;;;;;;8409245;28;20129;-86
2022/09/14 09:29:26;;;;;;;4.25;2.53;;;;;;;;;;8427102;28;20086;-83
2022/09/14 09:33:29;;;;;;;5.32;2.33;;;;;;;;;;8409733;28;20044;-84
2022/09/14 09:37:39;;;;;;;4.82;2.30;;;;;;;;;;8425199;28;20056;-87
2022/09/14 09:41:45;;;;;;;5.10;2.85;;;;;;;;;;8426257;28;20055;-87
2022/09/14 09:45:54;;;;;;;5.53;2.25;;;;;;;;;;8426720;28;20055;-88
2022/09/14 09:49:59;;;;;;;5.63;2.20;;;;;;;;;;8425133;28;20079;-87
2022/09/14 09:54:22;;;;;;;2.72;2.00;;;;;;;;;;8430795;28;20462;-89
2022/09/14 09:58:31;;;;;;;5.57;2.30;;;;;;;;;;8401065;28;20052;-85
2022/09/14 10:02:34;;;;;;;6.03;2.50;;;;;;;;;;8425941;28;20040;-81
2022/09/14 10:06:43;;;;;;;10.48;2.55;;;;;;;;;;8424388;28;20059;-82
2022/09/14 10:10:47;;;;;;;7.70;2.83;;;;;;;;;;8425319;28;20059;-83
2022/09/14 10:14:50;;;;;;;5.57;2.83;;;;;;;;;;8423606;28;20318;-87
2022/09/14 10:18:54;;;;;;;4.70;2.90;;;;;;;;;;8413389;28;20097;-84
2022/09/14 10:22:57;;;;;;;6.43;3.55;;;;;;;;;;8406813;28;20132;-87
2022/09/14 10:27:01;;;;;;;5.43;3.20;;;;;;;;;;8396278;28;20554;-87
2022/09/14 10:31:12;;;;;;;6.05;3.67;;;;;;;;;;8396356;28;20127;-84
2022/09/14 10:35:16;;;;;;;5.95;3.60;;;;;;;;;;8396373;28;20048;-81
2022/09/14 10:39:25;;;;;;;7.78;3.67;;;;;;;;;;8396109;28;20045;-86
2022/09/14 10:43:42;;;;;;;6.60;4.07;;;;;;;;;;8396262;28;20094;-88
2022/09/14 10:48:29;;;;;;;6.88;3.70;;;;;;;;;;8396690;28;20040;-84
2022/09/14 10:52:38;;;;;;;6.03;3.90;;;;;;;;;;8286356;28;20057;-82
2022/09/14 10:56:54;;;;;;;6.65;3.50;;;;;;;;;;8293160;28;20048;-89
2022/09/14 11:01:13;;;;;;;5.25;3.30;;;;;;;;;;8293351;28;20045;-85
2022/09/14 11:05:22;;;;;;;6.78;2.88;;;;;;;;;;8293160;28;20093;-82
2022/09/14 11:09:28;;;;;;;7.35;2.95;;;;;;;;;;8292911;28;20057;-81
2022/09/14 11:13:48;;;;;;;6.40;2.50;;;;;;;;;;8292942;28;20508;-85
2022/09/14 11:18:19;;;;;;;5.30;2.63;;;;;;;;;;8292785;28;20532;-82
2022/09/14 11:22:33;;;;;;;8.50;2.53;;;;;;;;;;8337406;28;20482;-81
2022/09/14 11:26:40;;;;;;;5.82;2.40;;;;;;;;;;8409862;28;20037;-80
2022/09/14 11:30:48;;;;;;;5.10;2.38;;;;;;;;;;8395428;28;20125;-85
2022/09/14 11:34:56;;;;;;;7.47;2.50;;;;;;;;;;8395283;28;20063;-87
2022/09/14 11:39:04;;;;;;;7.78;2.80;;;;;;;;;;8422235;28;20083;-84
2022/09/14 11:43:13;;;;;;;4.95;2.30;;;;;;;;;;8422106;28;20047;-84
2022/09/14 11:47:18;;;;;;;6.35;2.55;;;;;;;;;;8417613;28;20551;-83
2022/09/14 11:51:27;;;;;;;5.85;2.65;;;;;;;;;;8426178;28;20043;-89
2022/09/14 11:55:30;;;;;;;4.88;2.28;;;;;;;;;;8426214;28;20047;-83
2022/09/14 11:59:49;;;;;;;7.85;2.50;;;;;;;;;;8422741;28;20048;-88
2022/09/14 12:04:05;;;;;;;4.18;2.67;;;;;;;;;;8414259;28;21226;-88
2022/09/14 12:08:39;;;;;;;7.43;2.88;;;;;;;;;;8422418;28;20124;-84
2022/09/14 12:12:43;;;;;;;4.25;2.47;;;;;;;;;;8410825;28;20097;-84
2022/09/14 12:17:19;;;;;;;3.97;2.20;;;;;;;;;;8422386;28;20048;-89
2022/09/14 12:21:26;;;;;;;4.57;2.25;;;;;;;;;;8418820;28;20047;-82
2022/09/14 12:25:30;;;;;;;3.45;2.60;;;;;;;;;;8422463;28;20099;-84
2022/09/14 12:29:34;;;;;;;8.98;2.50;;;;;;;;;;8425017;28;20056;-86
2022/09/14 12:33:42;;;;;;;5.65;2.40;;;;;;;;;;8428635;28;20102;-86
2022/09/14 12:37:45;;;;;;;5.90;2.70;;;;;;;;;;8428281;28;20044;-87
2022/09/14 12:42:31;;;;;;;7.95;2.80;;;;;;;;;;8428343;28;20051;-90
2022/09/14 12:46:41;;;;;;;5.55;2.17;;;;;;;;;;8433607;28;20056;-89
2022/09/14 12:50:54;;;;;;;5.07;2.03;;;;;;;;;;8430805;28;20122;-88
2022/09/14 12:55:16;;;;;;;7.03;2.10;;;;;;;;;;8429793;28;20728;-89
2022/09/14 12:59:39;;;;;;;7.88;2.80;;;;;;;;;;8433154;28;20078;-91
2022/09/14 13:03:52;;;;;;;4.93;2.45;;;;;;;;;;8446492;28;20106;-86
2022/09/14 13:08:22;;;;;;;7.25;2.67;;;;;;;;;;8400582;28;20056;-90
2022/09/14 13:12:38;;;;;;;5.25;2.53;;;;;;;;;;8426992;28;20104;-89
2022/09/14 13:16:52;;;;;;;6.32;2.50;;;;;;;;;;8426957;28;20064;-90
2022/09/14 13:21:00;;;;;;;5.22;2.65;;;;;;;;;;8415435;28;20072;-85
2022/09/14 13:25:08;;;;;;;7.40;3.05;;;;;;;;;;8427234;28;20122;-89
2022/09/14 13:29:25;;;;;;;5.28;2.60;;;;;;;;;;8426067;28;20055;-84
2022/09/14 13:33:36;;;;;;;8.55;2.85;;;;;;;;;;8423989;28;20138;-90
2022/09/14 13:37:40;;;;;;;7.63;2.53;;;;;;;;;;8432022;28;20058;-84
2022/09/14 13:41:51;;;;;;;4.78;2.53;;;;;;;;;;8428713;28;20047;-89
2022/09/14 13:45:59;;;;;;;4.00;2.60;;;;;;;;;;8431713;28;20040;-92
2022/09/14 13:50:11;;;;;;;4.25;2.20;;;;;;;;;;8421827;28;20060;-86
2022/09/14 13:54:30;;;;;;;6.20;2.70;;;;;;;;;;8436728;28;20052;-88
2022/09/14 13:58:37;;;;;;;3.20;2.17;;;;;;;;;;8426535;28;20087;-86
2022/09/14 14:02:51;;;;;;;6.40;2.58;;;;;;;;;;8422801;28;20392;-88
2022/09/14 14:07:20;;;;;;;7.90;2.35;;;;;;;;;;8430477;28;20047;-90
2022/09/14 14:11:36;;;;;;;6.03;2.70;;;;;;;;;;8386606;28;20047;-87
2022/09/14 14:15:41;;;;;;;4.53;2.25;;;;;;;;;;8425164;28;20085;-87
2022/09/14 14:19:45;;;;;;;5.88;2.53;;;;;;;;;;8426331;28;20047;-87
2022/09/14 14:23:52;;;;;;;4.95;2.47;;;;;;;;;;8424761;28;20473;-85
2022/09/14 14:28:00;;;;;;;5.85;2.42;;;;;;;;;;8426637;28;20111;-85
2022/09/14 14:32:03;;;;;;;4.90;2.67;;;;;;;;;;8435245;28;20051;-84
2022/09/14 14:36:08;;;;;;;5.78;2.50;;;;;;;;;;8436353;28;20494;-86
2022/09/14 14:40:13;;;;;;;6.13;2.88;;;;;;;;;;8434799;28;20048;-84
2022/09/14 14:44:19;;;;;;;5.15;2.78;;;;;;;;;;8421059;28;20054;-85
2022/09/14 14:48:22;;;;;;;5.30;2.83;;;;;;;;;;8426479;28;20474;-88
2022/09/14 14:52:25;;;;;;;6.05;3.47;;;;;;;;;;8426442;28;20091;-84
2022/09/14 14:56:29;;;;;;;7.00;3.70;;;;;;;;;;8424454;28;20581;-89
2022/09/14 15:00:34;;;;;;;8.52;3.38;;;;;;;;;;8423812;28;20063;-87
2022/09/14 15:04:37;;;;;;;8.88;3.30;;;;;;;;;;8423587;28;20101;-82
2022/09/14 15:08:39;;;;;;;5.75;2.97;;;;;;;;;;8422205;28;20082;-87
2022/09/14 15:12:45;;;;;;;7.32;3.90;;;;;;;;;;8425162;28;20044;-84
2022/09/14 15:16:49;;;;;;;6.25;2.83;;;;;;;;;;8422498;28;20051;-83
2022/09/14 15:20:51;;;;;;;6.10;2.97;;;;;;;;;;8425513;28;20139;-86
2022/09/14 15:24:54;;;;;;;8.85;3.65;;;;;;;;;;8427773;28;20055;-86
2022/09/14 15:28:58;;;;;;;7.32;3.60;;;;;;;;;;8428646;28;20044;-83
2022/09/14 15:33:01;;;;;;;6.90;3.65;;;;;;;;;;8427795;28;20040;-83
2022/09/14 15:37:04;;;;;;;7.28;3.55;;;;;;;;;;8421615;28;20392;-88
2022/09/14 15:41:11;;;;;;;6.18;3.38;;;;;;;;;;8417807;28;20057;-85
2022/09/14 15:45:15;;;;;;;11.20;3.85;;;;;;;;;;8423183;28;20040;-86
2022/09/14 15:49:20;;;;;;;8.27;3.72;;;;;;;;;;8423755;28;20150;-88
2022/09/14 15:53:30;;;;;;;9.38;4.70;;;;;;;;;;8422558;28;20055;-88
2022/09/14 15:57:41;;;;;;;7.72;4.63;;;;;;;;;;8422767;28;20047;-87
2022/09/14 16:01:47;;;;;;;9.85;5.40;;;;;;;;;;8428521;28;20105;-84
2022/09/14 16:05:56;;;;;;;13.27;7.10;;;;;;;;;;8421491;28;20045;-87
2022/09/14 16:10:00;;;;;;;10.50;6.40;;;;;;;;;;8420700;28;20385;-81
2022/09/14 16:14:04;;;;;;;7.78;5.38;;;;;;;;;;8429984;28;20419;-81
2022/09/14 16:18:17;;;;;;;10.18;5.60;;;;;;;;;;8430989;28;20466;-84
2022/09/14 16:22:24;;;;;;;9.85;6.00;;;;;;;;;;8430827;28;20056;-83
2022/09/14 16:26:29;;;;;;;9.88;5.60;;;;;;;;;;8431220;28;20127;-87
2022/09/14 16:30:31;;;;;;;10.18;5.05;;;;;;;;;;8419886;28;20048;-82
2022/09/14 16:34:36;;;;;;;8.30;5.30;;;;;;;;;;8419223;28;20063;-87
2022/09/14 16:38:40;;;;;;;9.90;4.85;;;;;;;;;;8432195;28;20062;-84
2022/09/14 16:42:45;;;;;;;10.15;4.60;;;;;;;;;;8433626;28;20626;-81
2022/09/14 16:46:49;;;;;;;11.90;4.68;;;;;;;;;;8418225;28;20052;-83
2022/09/14 16:50:54;;;;;;;8.63;4.57;;;;;;;;;;8438932;28;20047;-81
2022/09/14 16:54:58;;;;;;;7.95;4.70;;;;;;;;;;8436660;28;20052;-84
2022/09/14 16:59:02;;;;;;;8.15;4.47;;;;;;;;;;8432948;28;20127;-82
2022/09/14 17:03:05;;;;;;;10.20;4.00;;;;;;;;;;8429540;28;20093;-84
2022/09/14 17:07:09;;;;;;;8.38;4.78;;;;;;;;;;8429777;28;20055;-83
2022/09/14 17:11:13;;;;;;;7.25;4.50;;;;;;;;;;8426255;28;20135;-85
2022/09/14 17:15:16;;;;;;;9.18;4.80;;;;;;;;;;8425163;28;20075;-85
2022/09/14 17:19:19;;;;;;;7.57;4.72;;;;;;;;;;8431432;28;20052;-82
2022/09/14 17:23:24;;;;;;;8.68;5.15;;;;;;;;;;8430119;28;20044;-83
2022/09/14 17:27:26;;;;;;;13.82;10.57;;;;;;;;;;8422177;28;20048;-86
2022/09/14 17:31:31;;;;;;;12.25;7.70;;;;;;;;;;8426864;28;20113;-83
2022/09/14 17:35:34;;;;;;;19.58;13.07;;;;;;;;;;8426930;28;20658;-82
2022/09/14 17:39:38;;;;;;;11.35;6.88;;;;;;;;;;8428319;28;20056;-82
2022/09/14 17:43:42;;;;;;;15.43;9.07;;;;;;;;;;8426883;28;20089;-87
2022/09/14 17:47:44;;;;;;;15.25;9.20;;;;;;;;;;8428656;28;20408;-86
2022/09/14 17:51:47;;;;;;;14.38;9.40;;;;;;;;;;8425821;28;20100;-85
2022/09/14 17:55:51;;;;;;;13.02;8.48;;;;;;;;;;8427557;28;20043;-81
2022/09/14 17:59:54;;;;;;;14.23;9.73;;;;;;;;;;8425369;28;20051;-83
2022/09/14 18:03:58;;;;;;;15.50;10.77;;;;;;;;;;8424585;28;20055;-81
2022/09/14 18:08:02;;;;;;;13.35;9.90;;;;;;;;;;8422404;28;20058;-84
2022/09/14 18:12:09;;;;;;;13.65;6.03;;;;;;;;;;8423700;28;20051;-86
2022/09/14 18:16:14;;;;;;;11.63;5.43;;;;;;;;;;8423190;28;20491;-87
2022/09/14 18:20:17;;;;;;;9.80;5.57;;;;;;;;;;8421481;28;20052;-83
2022/09/14 18:24:21;;;;;;;9.63;6.32;;;;;;;;;;8423103;28;20048;-87
2022/09/14 18:28:25;;;;;;;16.67;11.13;;;;;;;;;;8425437;28;20056;-86
2022/09/14 18:32:31;;;;;;;12.23;6.60;;;;;;;;;;8420228;28;20048;-83
2022/09/14 18:36:34;;;;;;;11.68;8.10;;;;;;;;;;8404816;28;20043;-86
2022/09/14 18:40:38;;;;;;;13.30;7.60;;;;;;;;;;8437122;28;20499;-86
2022/09/14 18:44:42;;;;;;;14.00;8.50;;;;;;;;;;8434484;28;20047;-88
2022/09/14 18:48:46;;;;;;;13.10;8.40;;;;;;;;;;8438448;28;20114;-88
2022/09/14 18:52:49;;;;;;;14.23;6.93;;;;;;;;;;8428534;28;20048;-86
2022/09/14 18:56:52;;;;;;;8.95;6.13;;;;;;;;;;8427034;28;20044;-83
2022/09/14 19:00:56;;;;;;;8.98;5.60;;;;;;;;;;8427845;28;20075;-83
2022/09/14 19:05:08;;;;;;;10.05;5.47;;;;;;;;;;8428605;28;20482;-85
2022/09/14 19:09:11;;;;;;;27.90;13.88;;;;;;;;;;8418985;28;20095;-88
2022/09/14 19:13:17;;;;;;;37.80;24.83;;;;;;;;;;8432868;28;20703;-87
2022/09/14 19:17:22;;;;;;;15.13;9.80;;;;;;;;;;8435405;28;20043;-88
2022/09/14 19:21:30;;;;;;;10.60;7.32;;;;;;;;;;8432670;28;20056;-87
2022/09/14 19:25:37;;;;;;;10.82;6.28;;;;;;;;;;8429348;28;20498;-83
2022/09/14 19:29:40;;;;;;;11.20;6.80;;;;;;;;;;8434541;28;20479;-82
2022/09/14 19:33:46;;;;;;;15.57;8.07;;;;;;;;;;8434912;28;20043;-87
2022/09/14 19:37:49;;;;;;;12.25;7.80;;;;;;;;;;8428601;28;20597;-82
2022/09/14 19:41:52;;;;;;;12.60;7.70;;;;;;;;;;8400699;28;20396;-81
2022/09/14 19:45:55;;;;;;;10.82;7.57;;;;;;;;;;8400903;28;20050;-82
2022/09/14 19:50:00;;;;;;;12.10;8.48;;;;;;;;;;8401556;28;20045;-88
2022/09/14 19:54:09;;;;;;;13.95;8.90;;;;;;;;;;8401501;28;20036;-88
2022/09/14 19:58:13;;;;;;;15.65;8.40;;;;;;;;;;8400968;28;20071;-82
2022/09/14 20:02:16;;;;;;;11.90;7.88;;;;;;;;;;8402642;28;20049;-83
2022/09/14 20:06:30;;;;;;;17.70;9.00;;;;;;;;;;8414574;28;20075;-83
2022/09/14 20:10:35;;;;;;;13.82;8.25;;;;;;;;;;8401222;28;20415;-89
2022/09/14 20:14:38;;;;;;;15.80;8.52;;;;;;;;;;8401031;28;20045;-82
2022/09/14 20:18:41;;;;;;;10.90;7.47;;;;;;;;;;8401043;28;20060;-83
2022/09/14 20:22:46;;;;;;;26.85;12.40;;;;;;;;;;8400712;28;20056;-82
2022/09/14 20:26:50;;;;;;;10.80;7.90;;;;;;;;;;8400730;28;20102;-82
2022/09/14 20:30:58;;;;;;;14.18;9.55;;;;;;;;;;8400643;28;20041;-86
2022/09/14 20:35:01;;;;;;;17.52;9.85;;;;;;;;;;8400447;28;20047;-85
2022/09/14 20:39:05;;;;;;;12.13;8.07;;;;;;;;;;8400367;28;20123;-83
2022/09/14 20:43:09;;;;;;;14.85;8.18;;;;;;;;;;8419299;28;20048;-84
2022/09/14 20:47:11;;;;;;;10.43;7.57;;;;;;;;;;8399687;28;20052;-83
2022/09/14 20:51:14;;;;;;;11.80;7.60;;;;;;;;;;8400105;28;20051;-87
2022/09/14 20:55:19;;;;;;;11.65;7.95;;;;;;;;;;8400244;28;20124;-85
2022/09/14 20:59:22;;;;;;;17.25;8.20;;;;;;;;;;8399683;28;20143;-82
2022/09/14 21:03:25;;;;;;;15.82;8.15;;;;;;;;;;8409747;28;20054;-83
2022/09/14 21:07:28;;;;;;;13.52;7.72;;;;;;;;;;8403048;28;20516;-82
2022/09/14 21:11:32;;;;;;;12.43;8.43;;;;;;;;;;8399298;28;20064;-81
2022/09/14 21:15:35;;;;;;;14.43;8.40;;;;;;;;;;8399684;28;20051;-86
2022/09/14 21:19:38;;;;;;;18.23;11.10;;;;;;;;;;8399494;28;20102;-89
2022/09/14 21:23:41;;;;;;;13.45;9.70;;;;;;;;;;8399099;28;20052;-84
2022/09/14 21:27:45;;;;;;;15.85;9.70;;;;;;;;;;8398630;28;20131;-84
2022/09/14 21:31:48;;;;;;;14.23;9.32;;;;;;;;;;8398514;28;20053;-85
2022/09/14 21:35:51;;;;;;;13.60;9.68;;;;;;;;;;8399072;28;20412;-84
2022/09/14 21:39:54;;;;;;;13.40;9.10;;;;;;;;;;8398707;28;20059;-81
2022/09/14 21:43:58;;;;;;;14.23;9.25;;;;;;;;;;8398298;28;20389;-82
2022/09/14 21:48:00;;;;;;;15.10;9.32;;;;;;;;;;8398218;28;20119;-81
2022/09/14 21:52:03;;;;;;;13.98;9.90;;;;;;;;;;8397920;28;20052;-82
2022/09/14 21:56:06;;;;;;;13.00;9.88;;;;;;;;;;8397934;28;20045;-85
2022/09/14 22:00:12;;;;;;;13.68;9.43;;;;;;;;;;8397550;28;20048;-81
2022/09/14 22:04:17;;;;;;;18.38;10.55;;;;;;;;;;8411695;28;20082;-82
2022/09/14 22:08:19;;;;;;;15.02;10.13;;;;;;;;;;8397302;28;20060;-82
2022/09/14 22:12:22;;;;;;;15.98;10.07;;;;;;;;;;8397375;28;20048;-81
2022/09/14 22:16:32;;;;;;;21.27;13.02;;;;;;;;;;8397632;28;20483;-82
2022/09/14 22:20:35;;;;;;;16.73;10.88;;;;;;;;;;8397137;28;20105;-81
2022/09/14 22:24:38;;;;;;;14.77;10.98;;;;;;;;;;8397230;28;20045;-81
2022/09/14 22:28:41;;;;;;;15.52;9.40;;;;;;;;;;8411452;28;20048;-82
2022/09/14 22:32:45;;;;;;;15.00;10.30;;;;;;;;;;8396624;28;20041;-82
2022/09/14 22:36:47;;;;;;;16.92;11.02;;;;;;;;;;8396394;28;20044;-86
2022/09/14 22:40:55;;;;;;;15.82;10.95;;;;;;;;;;8396292;28;20119;-82
2022/09/14 22:44:57;;;;;;;14.10;10.18;;;;;;;;;;8396259;28;20093;-82
2022/09/14 22:49:01;;;;;;;18.58;11.57;;;;;;;;;;8378730;28;20048;-82
2022/09/14 22:53:04;;;;;;;16.45;11.57;;;;;;;;;;8396631;28;20041;-82
2022/09/14 22:57:06;;;;;;;23.98;16.27;;;;;;;;;;8395840;28;20094;-82
2022/09/14 23:01:11;;;;;;;35.88;20.52;;;;;;;;;;8395769;28;20264;-82
2022/09/14 23:05:16;;;;;;;43.95;22.90;;;;;;;;;;8410092;28;20051;-82
2022/09/14 23:09:20;;;;;;;34.83;22.42;;;;;;;;;;8395542;28;20486;-82
2022/09/14 23:13:23;;;;;;;34.47;21.67;;;;;;;;;;8395295;28;20492;-82
2022/09/14 23:17:26;;;;;;;39.05;23.35;;;;;;;;;;8395542;28;20045;-82
2022/09/14 23:21:31;;;;;;;31.83;17.83;;;;;;;;;;8395335;28;20492;-81
2022/09/14 23:25:35;;;;;;;29.10;18.23;;;;;;;;;;8377923;28;20408;-81
2022/09/14 23:29:37;;;;;;;28.15;19.33;;;;;;;;;;8420617;28;20117;-89
2022/09/14 23:33:40;;;;;;;32.00;19.73;;;;;;;;;;8409212;28;20063;-82
2022/09/14 23:37:43;;;;;;;30.63;19.58;;;;;;;;;;8427017;28;20105;-82
2022/09/14 23:41:46;;;;;;;33.70;21.17;;;;;;;;;;8416189;28;20064;-82
2022/09/14 23:45:49;;;;;;;30.67;20.40;;;;;;;;;;8432642;28;20060;-81
2022/09/14 23:49:51;;;;;;;27.88;17.65;;;;;;;;;;8423858;28;20040;-88
2022/09/14 23:53:55;;;;;;;33.50;21.55;;;;;;;;;;8433657;28;20463;-82
2022/09/14 23:57:58;;;;;;;33.70;21.60;;;;;;;;;;8430819;28;20554;-82
